Time;durP1;ratioP1;P1;durP2;ratioP2;P2;SDS_P1;SDS_P2;PMS_P1;PMS_P2;Temp;Humidity;BMP_temperature;BMP_pressure;BME280_temperature;BME280_humidity;BME280_pressure;Samples;Min_cycle;Max_cycle;Signal;HPM_P1;HPM_P2
2023/09/16 00:01:16;;;;;;;10.20;6.22;;;14.40;99.90;;;;;;5080037;28;20087;-68
2023/09/16 00:03:41;;;;;;;8.75;6.07;;;14.40;99.90;;;;;;5083177;28;20453;-69
2023/09/16 00:06:07;;;;;;;8.80;6.15;;;14.30;99.90;;;;;;5055177;28;20036;-68
2023/09/16 00:08:34;;;;;;;9.88;6.15;;;14.30;99.90;;;;;;5064228;28;20045;-69
2023/09/16 00:11:02;;;;;;;9.60;6.53;;;14.30;99.90;;;;;;5066106;28;20128;-68
2023/09/16 00:13:28;;;;;;;9.18;6.28;;;14.20;99.90;;;;;;5060708;28;20095;-69
2023/09/16 00:15:54;;;;;;;9.90;6.13;;;14.20;99.90;;;;;;5067662;28;20106;-67
2023/09/16 00:18:20;;;;;;;9.80;6.70;;;14.20;99.90;;;;;;5051706;28;20051;-68
2023/09/16 00:20:49;;;;;;;9.90;7.32;;;14.10;99.90;;;;;;5066824;28;20411;-68
2023/09/16 00:23:15;;;;;;;10.52;7.13;;;14.10;99.90;;;;;;5067195;28;20053;-67
2023/09/16 00:25:42;;;;;;;11.85;6.93;;;14.10;99.90;;;;;;5058685;28;20567;-67
2023/09/16 00:28:08;;;;;;;10.40;6.82;;;14.00;99.90;;;;;;5077555;28;20057;-68
2023/09/16 00:30:35;;;;;;;12.88;6.90;;;14.00;99.90;;;;;;5059597;28;20056;-68
2023/09/16 00:33:04;;;;;;;14.18;7.20;;;14.00;99.90;;;;;;5068436;28;20537;-68
2023/09/16 00:35:30;;;;;;;12.07;7.45;;;14.00;99.90;;;;;;5069232;28;20060;-69
2023/09/16 00:37:55;;;;;;;10.50;7.15;;;14.00;99.90;;;;;;5050878;28;20053;-68
2023/09/16 00:40:21;;;;;;;13.25;7.32;;;14.00;99.90;;;;;;5061275;28;20409;-68
2023/09/16 00:42:47;;;;;;;9.48;6.60;;;13.90;99.90;;;;;;5064432;28;20041;-67
2023/09/16 00:45:14;;;;;;;9.20;6.40;;;13.90;99.90;;;;;;5057574;28;20498;-69
2023/09/16 00:47:41;;;;;;;11.30;6.47;;;13.80;99.90;;;;;;5054450;28;20117;-68
2023/09/16 00:50:13;;;;;;;11.07;7.03;;;13.80;99.90;;;;;;5088382;28;20578;-68
2023/09/16 00:52:46;;;;;;;13.77;6.72;;;13.80;99.90;;;;;;5048142;28;20104;-67
2023/09/16 00:55:12;;;;;;;11.30;6.68;;;13.70;99.90;;;;;;5052304;28;20056;-68
2023/09/16 00:57:45;;;;;;;11.25;6.85;;;13.70;99.90;;;;;;5041669;28;20567;-68
2023/09/16 01:00:11;;;;;;;13.68;7.00;;;13.70;99.90;;;;;;5047575;28;20131;-68
2023/09/16 01:02:37;;;;;;;10.48;7.57;;;13.70;99.90;;;;;;5046527;28;20164;-68
2023/09/16 01:05:14;;;;;;;11.68;7.18;;;13.70;99.90;;;;;;5043201;28;20136;-67
2023/09/16 01:07:41;;;;;;;11.20;7.70;;;13.60;99.90;;;;;;5056158;28;20055;-68
2023/09/16 01:10:10;;;;;;;11.57;7.82;;;13.60;99.90;;;;;;5035093;28;20048;-68
2023/09/16 01:12:37;;;;;;;12.02;8.10;;;13.60;99.90;;;;;;5053056;28;20049;-69
2023/09/16 01:15:05;;;;;;;11.27;8.10;;;13.50;99.90;;;;;;5084189;28;20048;-68
2023/09/16 01:17:40;;;;;;;12.52;8.45;;;13.50;99.90;;;;;;5052467;28;20516;-69
2023/09/16 01:20:11;;;;;;;10.82;8.20;;;13.50;99.90;;;;;;5060375;28;20080;-68
2023/09/16 01:22:39;;;;;;;13.50;8.45;;;13.40;99.90;;;;;;5046481;28;20055;-69
2023/09/16 01:25:06;;;;;;;14.75;8.38;;;13.40;99.90;;;;;;5046192;28;20504;-68
2023/09/16 01:27:32;;;;;;;14.57;8.98;;;13.40;99.90;;;;;;5044548;28;20041;-68
2023/09/16 01:30:02;;;;;;;11.10;8.63;;;13.40;99.90;;;;;;5044009;28;20049;-68
2023/09/16 01:32:39;;;;;;;12.10;8.90;;;13.30;99.90;;;;;;5083668;28;20114;-68
2023/09/16 01:35:08;;;;;;;13.70;9.43;;;13.30;99.90;;;;;;5049810;28;20473;-68
2023/09/16 01:37:35;;;;;;;12.85;9.18;;;13.30;99.90;;;;;;5065918;28;20048;-68
2023/09/16 01:40:10;;;;;;;14.30;9.80;;;13.30;99.90;;;;;;5059498;28;20041;-68
2023/09/16 01:42:36;;;;;;;13.30;9.68;;;13.20;99.90;;;;;;5035307;28;20279;-68
2023/09/16 01:45:02;;;;;;;15.27;9.65;;;13.20;99.90;;;;;;5031183;28;20126;-68
2023/09/16 01:47:28;;;;;;;14.02;9.13;;;13.20;99.90;;;;;;5054224;28;20455;-68
2023/09/16 01:49:54;;;;;;;12.82;9.77;;;13.10;99.90;;;;;;5060736;28;20049;-68
2023/09/16 01:52:19;;;;;;;13.05;9.02;;;13.10;99.90;;;;;;5060407;28;20036;-67
2023/09/16 01:54:45;;;;;;;13.45;8.88;;;13.10;99.90;;;;;;5045951;28;20052;-69
2023/09/16 01:57:11;;;;;;;13.20;9.77;;;13.10;99.90;;;;;;5062891;28;20774;-68
2023/09/16 01:59:37;;;;;;;14.07;9.70;;;13.10;99.90;;;;;;5046505;28;20079;-67
2023/09/16 02:02:03;;;;;;;12.80;10.13;;;13.10;99.90;;;;;;5053144;28;20074;-67
2023/09/16 02:04:29;;;;;;;13.73;9.80;;;13.00;99.90;;;;;;5052487;28;20086;-68
2023/09/16 02:06:55;;;;;;;15.27;10.18;;;13.00;99.90;;;;;;5054456;28;20120;-68
2023/09/16 02:09:20;;;;;;;24.15;10.25;;;13.00;99.90;;;;;;5040284;28;20143;-68
2023/09/16 02:11:46;;;;;;;13.82;9.10;;;13.00;99.90;;;;;;5055423;28;20147;-68
2023/09/16 02:14:17;;;;;;;15.05;9.82;;;12.90;99.90;;;;;;5051948;28;20072;-68
2023/09/16 02:16:46;;;;;;;12.35;9.48;;;12.90;99.90;;;;;;5037482;28;20080;-68
2023/09/16 02:19:12;;;;;;;14.65;9.80;;;12.90;99.90;;;;;;5072955;28;20044;-68
2023/09/16 02:21:38;;;;;;;12.60;9.48;;;12.90;99.90;;;;;;5044842;28;20053;-68
2023/09/16 02:24:04;;;;;;;14.77;9.60;;;12.90;99.90;;;;;;5036135;28;20048;-68
2023/09/16 02:26:30;;;;;;;11.23;8.25;;;12.90;99.90;;;;;;5045760;28;20051;-67
2023/09/16 02:28:56;;;;;;;14.57;10.00;;;12.80;99.90;;;;;;5053583;28;20405;-68
2023/09/16 02:31:26;;;;;;;14.07;9.68;;;12.80;99.90;;;;;;5057113;28;20059;-67
2023/09/16 02:33:55;;;;;;;12.70;8.85;;;12.80;99.90;;;;;;5036874;28;20040;-67
2023/09/16 02:36:21;;;;;;;14.45;9.60;;;12.80;99.90;;;;;;5057174;28;20462;-68
2023/09/16 02:38:48;;;;;;;13.25;9.65;;;12.80;99.90;;;;;;5055361;28;20123;-68
2023/09/16 02:41:17;;;;;;;13.52;9.57;;;12.80;99.90;;;;;;5051779;28;20052;-68
2023/09/16 02:43:44;;;;;;;13.48;9.57;;;12.70;99.90;;;;;;5028913;28;20052;-67
2023/09/16 02:46:09;;;;;;;12.30;9.48;;;12.70;99.90;;;;;;5052373;28;20052;-67
2023/09/16 02:48:35;;;;;;;13.82;9.57;;;12.70;99.90;;;;;;5063795;28;20044;-68
2023/09/16 02:51:02;;;;;;;14.07;9.77;;;12.70;99.90;;;;;;5049384;28;20071;-68
2023/09/16 02:53:31;;;;;;;15.68;9.52;;;12.60;99.90;;;;;;5065742;28;20063;-67
2023/09/16 02:55:57;;;;;;;15.43;9.35;;;12.60;99.90;;;;;;5049399;28;20135;-67
2023/09/16 02:58:23;;;;;;;13.18;9.63;;;12.60;99.90;;;;;;5048298;28;20691;-68
2023/09/16 03:00:49;;;;;;;14.65;9.90;;;12.60;99.90;;;;;;5061356;28;20056;-68
2023/09/16 03:03:14;;;;;;;12.93;9.88;;;12.60;99.90;;;;;;5047865;28;20056;-68
2023/09/16 03:05:41;;;;;;;12.35;9.38;;;12.50;99.90;;;;;;5048180;28;20048;-67
2023/09/16 03:08:06;;;;;;;11.38;8.98;;;12.60;99.90;;;;;;5057911;28;20039;-68
2023/09/16 03:10:33;;;;;;;13.02;9.18;;;12.50;99.90;;;;;;5048935;28;20413;-67
2023/09/16 03:12:59;;;;;;;12.43;9.40;;;12.50;99.90;;;;;;5064525;28;20044;-68
2023/09/16 03:15:25;;;;;;;12.13;8.98;;;12.50;99.90;;;;;;5043277;28;20059;-68
2023/09/16 03:17:50;;;;;;;14.82;9.27;;;12.50;99.90;;;;;;5047419;28;20136;-68
2023/09/16 03:20:16;;;;;;;12.52;9.65;;;12.40;99.90;;;;;;5048363;28;20048;-67
2023/09/16 03:22:42;;;;;;;14.32;10.20;;;12.40;99.90;;;;;;5064505;28;20044;-68
2023/09/16 03:25:08;;;;;;;18.40;11.13;;;12.40;99.90;;;;;;5058147;28;20489;-67
2023/09/16 03:27:34;;;;;;;20.27;12.32;;;12.40;99.90;;;;;;5064508;28;20048;-67
2023/09/16 03:29:59;;;;;;;23.50;13.45;;;12.40;99.90;;;;;;5068866;28;20052;-68
2023/09/16 03:32:28;;;;;;;24.05;12.95;;;12.30;99.90;;;;;;5068376;28;20048;-68
2023/09/16 03:34:54;;;;;;;21.65;12.82;;;12.30;99.90;;;;;;5068003;28;20117;-67
2023/09/16 03:37:19;;;;;;;20.90;12.50;;;12.30;99.90;;;;;;5032935;28;20049;-68
2023/09/16 03:39:45;;;;;;;21.73;12.80;;;12.30;99.90;;;;;;5055515;28;20036;-68
2023/09/16 03:42:12;;;;;;;23.50;13.63;;;12.30;99.90;;;;;;5052207;28;20051;-68
2023/09/16 03:44:37;;;;;;;20.15;13.02;;;12.30;99.90;;;;;;5067021;28;20052;-68
2023/09/16 03:47:03;;;;;;;24.95;12.70;;;12.20;99.90;;;;;;5060164;28;20056;-68
2023/09/16 03:49:29;;;;;;;19.80;12.65;;;12.20;99.90;;;;;;5064962;28;20769;-68
2023/09/16 03:51:55;;;;;;;18.52;11.55;;;12.20;99.90;;;;;;5068665;28;20045;-67
2023/09/16 03:54:20;;;;;;;20.35;12.25;;;12.20;99.90;;;;;;5070145;28;20110;-68
2023/09/16 03:56:47;;;;;;;16.75;10.88;;;12.20;99.90;;;;;;5051014;28;20055;-68
2023/09/16 03:59:13;;;;;;;17.00;11.65;;;12.20;99.90;;;;;;5050879;28;20048;-67
2023/09/16 04:01:39;;;;;;;18.25;10.57;;;12.10;99.90;;;;;;5052427;28;20060;-68
2023/09/16 04:04:05;;;;;;;15.63;11.23;;;12.10;99.90;;;;;;5046964;28;20097;-68
2023/09/16 04:06:31;;;;;;;15.65;10.75;;;12.10;99.90;;;;;;5069368;28;20127;-68
2023/09/16 04:08:56;;;;;;;15.40;10.82;;;12.10;99.90;;;;;;5067121;28;20675;-68
2023/09/16 04:11:22;;;;;;;16.23;10.75;;;12.10;99.90;;;;;;5050494;28;20092;-68
2023/09/16 04:13:48;;;;;;;17.45;10.98;;;12.10;99.90;;;;;;5051310;28;20064;-64
2023/09/16 04:16:14;;;;;;;14.30;10.93;;;12.00;99.90;;;;;;5042569;28;20417;-64
2023/09/16 04:18:40;;;;;;;15.63;10.95;;;12.00;99.90;;;;;;5091115;28;20061;-64
2023/09/16 04:21:06;;;;;;;14.55;10.73;;;12.00;99.90;;;;;;5065760;28;20048;-64
2023/09/16 04:23:35;;;;;;;17.67;10.30;;;12.00;99.90;;;;;;5034989;28;20761;-64
2023/09/16 04:26:01;;;;;;;16.08;10.48;;;12.00;99.90;;;;;;5052572;28;20057;-64
2023/09/16 04:28:27;;;;;;;13.68;10.20;;;12.00;99.90;;;;;;5056482;28;20052;-64
2023/09/16 04:30:53;;;;;;;12.85;9.55;;;12.00;99.90;;;;;;5045235;28;20131;-64
2023/09/16 04:33:20;;;;;;;15.77;9.73;;;11.90;99.90;;;;;;5061600;28;20808;-64
2023/09/16 04:35:47;;;;;;;14.63;11.15;;;11.90;99.90;;;;;;5044768;28;20607;-64
2023/09/16 04:38:16;;;;;;;13.68;9.52;;;12.00;99.90;;;;;;5049598;28;20611;-64
2023/09/16 04:40:42;;;;;;;13.07;9.43;;;12.00;99.90;;;;;;5053780;28;20106;-64
2023/09/16 04:43:09;;;;;;;14.15;10.43;;;11.80;99.90;;;;;;5061414;28;20165;-64
2023/09/16 04:45:35;;;;;;;14.52;9.57;;;11.90;99.90;;;;;;5066482;28;20161;-64
2023/09/16 04:48:01;;;;;;;13.45;9.35;;;11.90;99.90;;;;;;5045270;28;20443;-64
2023/09/16 04:50:31;;;;;;;13.73;9.88;;;11.90;99.90;;;;;;5050886;28;20418;-64
2023/09/16 04:52:58;;;;;;;14.25;9.73;;;11.90;99.90;;;;;;5082222;28;20063;-64
2023/09/16 04:55:25;;;;;;;14.18;9.73;;;11.80;99.90;;;;;;5041940;28;20045;-64
2023/09/16 04:57:51;;;;;;;13.68;9.60;;;11.80;99.90;;;;;;5043666;28;20102;-64
2023/09/16 05:00:20;;;;;;;12.50;9.35;;;11.80;99.90;;;;;;5046035;28;20044;-64
2023/09/16 05:02:48;;;;;;;13.95;9.07;;;11.80;99.90;;;;;;5065008;28;20560;-64
2023/09/16 05:05:14;;;;;;;12.30;8.63;;;11.80;99.90;;;;;;5065219;28;20066;-64
2023/09/16 05:07:41;;;;;;;13.15;9.35;;;11.80;99.90;;;;;;5064811;28;20088;-64
2023/09/16 05:10:07;;;;;;;12.65;8.57;;;11.80;99.90;;;;;;5064103;28;20055;-64
2023/09/16 05:12:33;;;;;;;11.60;8.07;;;11.80;99.90;;;;;;5047749;28;20489;-65
2023/09/16 05:14:58;;;;;;;11.38;8.95;;;11.80;99.90;;;;;;5064734;28;20056;-64
2023/09/16 05:17:24;;;;;;;11.68;9.05;;;11.80;99.90;;;;;;5064349;28;20045;-64
2023/09/16 05:19:50;;;;;;;13.25;9.23;;;11.70;99.90;;;;;;5063725;28;20517;-64
2023/09/16 05:22:16;;;;;;;13.32;9.57;;;11.70;99.90;;;;;;5064243;28;20119;-64
2023/09/16 05:24:42;;;;;;;14.25;11.02;;;11.70;99.90;;;;;;5047742;28;20044;-64
2023/09/16 05:27:07;;;;;;;12.07;9.73;;;11.70;99.90;;;;;;5048585;28;20045;-64
2023/09/16 05:29:33;;;;;;;13.85;10.38;;;11.70;99.90;;;;;;5048579;28;20048;-64
2023/09/16 05:31:59;;;;;;;12.15;10.02;;;11.70;99.90;;;;;;5072009;28;20069;-63
2023/09/16 05:34:25;;;;;;;15.15;11.18;;;11.90;99.90;;;;;;5029764;28;20048;-63
2023/09/16 05:36:51;;;;;;;12.88;9.57;;;11.70;99.90;;;;;;5047090;28;20041;-63
2023/09/16 05:39:16;;;;;;;12.20;9.30;;;11.70;99.90;;;;;;5065600;28;20592;-63
2023/09/16 05:41:44;;;;;;;13.18;9.15;;;12.00;99.90;;;;;;5050083;28;20060;-63
2023/09/16 05:44:10;;;;;;;12.77;9.38;;;11.70;99.90;;;;;;5066873;28;20060;-63
2023/09/16 05:46:36;;;;;;;13.40;9.52;;;11.70;99.90;;;;;;5066851;28;20099;-64
2023/09/16 05:49:08;;;;;;;14.07;10.18;;;11.70;99.90;;;;;;5050313;28;20682;-64
2023/09/16 05:51:35;;;;;;;14.05;10.18;;;11.80;99.90;;;;;;5067439;28;20124;-64
2023/09/16 05:54:00;;;;;;;16.52;13.10;;;11.80;99.90;;;;;;5065902;28;20052;-64
2023/09/16 05:56:27;;;;;;;15.02;12.40;;;11.80;99.90;;;;;;5050373;28;20573;-68
2023/09/16 05:58:53;;;;;;;13.20;10.43;;;11.80;99.90;;;;;;5066723;28;20048;-63
2023/09/16 06:01:18;;;;;;;15.18;10.30;;;12.00;99.90;;;;;;5043623;28;20588;-64
2023/09/16 06:03:44;;;;;;;13.63;10.85;;;12.10;99.90;;;;;;5049667;28;20048;-65
2023/09/16 06:06:11;;;;;;;12.40;10.10;;;12.30;99.90;;;;;;5049696;28;20056;-64
2023/09/16 06:08:37;;;;;;;13.23;10.23;;;12.40;99.90;;;;;;5066566;28;20178;-64
2023/09/16 06:11:02;;;;;;;15.43;12.35;;;12.50;99.90;;;;;;5049542;28;20602;-64
2023/09/16 06:13:28;;;;;;;12.90;10.75;;;12.60;99.90;;;;;;5066314;28;20088;-64
2023/09/16 06:15:54;;;;;;;15.82;12.20;;;12.60;99.90;;;;;;5065808;28;20139;-65
2023/09/16 06:18:20;;;;;;;15.15;11.88;;;12.60;99.90;;;;;;5066159;28;20128;-65
2023/09/16 06:20:46;;;;;;;16.52;11.52;;;12.60;99.90;;;;;;5065186;28;21361;-64
2023/09/16 06:23:14;;;;;;;13.88;11.63;;;12.70;99.90;;;;;;5065314;28;20551;-64
2023/09/16 06:25:40;;;;;;;15.50;11.95;;;12.60;99.90;;;;;;5065852;28;20070;-64
2023/09/16 06:28:06;;;;;;;18.15;12.85;;;12.60;99.90;;;;;;5065349;28;20052;-64
2023/09/16 06:30:32;;;;;;;17.88;13.23;;;12.70;99.90;;;;;;5067073;28;20394;-64
2023/09/16 06:32:58;;;;;;;19.35;13.10;;;12.70;99.90;;;;;;5049074;28;20169;-64
2023/09/16 06:35:24;;;;;;;17.75;13.48;;;12.70;99.90;;;;;;5065670;28;20086;-64
2023/09/16 06:37:50;;;;;;;16.83;13.13;;;12.70;99.90;;;;;;5065460;28;20088;-64
2023/09/16 06:40:19;;;;;;;17.90;13.82;;;12.80;99.90;;;;;;5065305;28;20115;-64
2023/09/16 06:42:44;;;;;;;18.25;14.95;;;12.80;99.90;;;;;;5067074;28;20037;-64
2023/09/16 06:45:11;;;;;;;19.95;14.68;;;12.80;99.90;;;;;;5065899;28;20047;-64
2023/09/16 06:47:37;;;;;;;20.98;14.73;;;12.90;99.90;;;;;;5048952;28;20509;-64
2023/09/16 06:50:04;;;;;;;19.05;14.07;;;13.00;99.90;;;;;;5066124;28;20044;-64
2023/09/16 06:52:30;;;;;;;18.65;13.95;;;13.00;99.90;;;;;;5048303;28;20056;-64
2023/09/16 06:54:55;;;;;;;19.10;14.30;;;13.00;99.90;;;;;;5065812;28;20065;-64
2023/09/16 06:57:21;;;;;;;17.42;13.52;;;13.10;99.90;;;;;;5065578;28;20139;-64
2023/09/16 06:59:47;;;;;;;19.90;14.20;;;13.20;99.90;;;;;;5065629;28;20092;-64
2023/09/16 07:02:14;;;;;;;18.05;14.48;;;13.30;99.90;;;;;;5064774;28;20059;-65
2023/09/16 07:04:43;;;;;;;17.45;14.30;;;13.40;99.90;;;;;;5064957;28;20567;-65
2023/09/16 07:07:09;;;;;;;20.10;14.43;;;13.50;99.90;;;;;;5065276;28;20051;-65
2023/09/16 07:09:35;;;;;;;18.48;13.43;;;13.60;99.90;;;;;;5065512;28;20505;-65
2023/09/16 07:12:00;;;;;;;18.30;13.15;;;13.70;99.90;;;;;;5048427;28;20098;-65
2023/09/16 07:14:26;;;;;;;22.27;14.18;;;13.80;99.90;;;;;;5049095;28;21066;-65
2023/09/16 07:16:52;;;;;;;19.45;14.18;;;13.90;99.90;;;;;;5048969;28;20052;-65
2023/09/16 07:19:17;;;;;;;16.58;13.25;;;14.10;99.90;;;;;;5065588;28;20051;-65
2023/09/16 07:21:43;;;;;;;17.70;12.55;;;14.20;99.90;;;;;;5064306;28;20075;-65
2023/09/16 07:24:09;;;;;;;14.90;12.07;;;14.40;99.90;;;;;;5065434;28;20501;-65
2023/09/16 07:26:35;;;;;;;15.70;11.88;;;14.60;99.90;;;;;;5065800;28;20045;-65
2023/09/16 07:29:01;;;;;;;17.55;11.85;;;14.70;99.90;;;;;;5065483;28;20053;-65
2023/09/16 07:31:26;;;;;;;17.25;11.73;;;14.90;99.90;;;;;;5048551;28;20041;-65
2023/09/16 07:33:52;;;;;;;15.18;10.48;;;15.10;99.90;;;;;;5065494;28;20048;-65
2023/09/16 07:36:18;;;;;;;14.02;10.27;;;15.20;99.90;;;;;;5047940;28;20536;-65
2023/09/16 07:38:44;;;;;;;13.57;9.88;;;15.40;99.90;;;;;;5065673;28;20048;-65
2023/09/16 07:41:10;;;;;;;14.32;10.77;;;15.60;99.90;;;;;;5048522;28;20139;-65
2023/09/16 07:43:36;;;;;;;15.40;10.38;;;15.70;99.90;;;;;;5065329;28;20110;-65
2023/09/16 07:46:02;;;;;;;13.35;9.98;;;15.80;99.90;;;;;;5048426;28;20433;-65
2023/09/16 07:48:28;;;;;;;13.35;9.43;;;16.00;99.90;;;;;;5048723;28;20106;-65
2023/09/16 07:50:54;;;;;;;14.30;9.88;;;16.20;99.90;;;;;;5048373;28;20059;-65
2023/09/16 07:53:21;;;;;;;13.43;9.93;;;16.30;99.90;;;;;;5065015;28;20044;-65
2023/09/16 07:55:46;;;;;;;14.70;10.18;;;16.40;99.90;;;;;;5048893;28;20063;-65
2023/09/16 07:58:12;;;;;;;15.25;9.80;;;16.60;99.90;;;;;;5048738;28;20040;-65
2023/09/16 08:00:38;;;;;;;13.57;9.45;;;16.70;99.90;;;;;;5065627;28;20045;-65
2023/09/16 08:03:04;;;;;;;14.98;10.63;;;16.80;99.90;;;;;;5065275;28;20061;-65
2023/09/16 08:05:30;;;;;;;14.15;10.27;;;16.90;99.90;;;;;;5064953;28;20916;-65
2023/09/16 08:07:55;;;;;;;14.32;9.50;;;17.00;99.90;;;;;;5064948;28;20170;-65
2023/09/16 08:10:21;;;;;;;15.27;9.48;;;17.10;99.90;;;;;;5048352;28;20052;-65
2023/09/16 08:12:47;;;;;;;14.27;8.50;;;17.20;99.90;;;;;;5064693;28;20124;-65
2023/09/16 08:15:13;;;;;;;13.93;9.05;;;17.30;99.90;;;;;;5051375;28;20141;-65
2023/09/16 08:17:38;;;;;;;11.38;8.60;;;17.50;99.90;;;;;;5051568;28;20055;-65
2023/09/16 08:20:06;;;;;;;12.88;9.63;;;17.50;99.90;;;;;;5067888;28;20059;-65
2023/09/16 08:22:31;;;;;;;13.82;9.25;;;17.60;99.90;;;;;;5069109;28;20094;-65
2023/09/16 08:24:57;;;;;;;11.98;8.95;;;17.70;99.90;;;;;;5068244;28;20612;-65
2023/09/16 08:27:23;;;;;;;12.90;9.13;;;17.90;99.90;;;;;;5051084;28;20036;-64
2023/09/16 08:29:52;;;;;;;16.73;9.15;;;18.00;99.90;;;;;;5051217;28;20113;-65
2023/09/16 08:32:18;;;;;;;12.38;8.68;;;18.10;99.90;;;;;;5067695;28;20047;-65
2023/09/16 08:34:44;;;;;;;12.85;8.27;;;18.30;99.90;;;;;;5055968;28;20088;-66
2023/09/16 08:37:11;;;;;;;12.63;8.48;;;18.40;99.90;;;;;;5064686;28;20049;-65
2023/09/16 08:39:37;;;;;;;11.35;8.90;;;18.40;99.90;;;;;;5086971;28;20106;-66
2023/09/16 08:42:21;;;;;;;11.55;7.78;;;18.60;99.90;;;;;;5050370;28;20044;-65
2023/09/16 08:44:52;;;;;;;10.63;8.27;;;18.60;99.90;;;;;;5067866;28;20429;-66
2023/09/16 08:47:28;;;;;;;11.05;7.97;;;18.80;99.90;;;;;;5067583;28;20048;-66
2023/09/16 08:50:03;;;;;;;10.70;7.13;;;18.90;99.90;;;;;;5067751;28;20135;-66
2023/09/16 08:52:35;;;;;;;12.20;8.32;;;19.00;99.90;;;;;;5059428;28;20047;-66
2023/09/16 08:55:02;;;;;;;14.55;8.13;;;19.10;99.90;;;;;;5064177;28;20053;-66
2023/09/16 08:57:28;;;;;;;13.98;8.38;;;19.20;99.90;;;;;;5051494;28;20044;-65
2023/09/16 08:59:54;;;;;;;11.73;7.35;;;19.30;99.90;;;;;;5068355;28;20048;-66
2023/09/16 09:02:21;;;;;;;12.30;7.75;;;19.30;99.90;;;;;;5067326;28;20053;-66
2023/09/16 09:04:46;;;;;;;10.73;7.00;;;19.40;99.90;;;;;;5049905;28;20037;-66
2023/09/16 09:07:14;;;;;;;10.57;6.90;;;19.50;99.90;;;;;;5036000;28;20482;-66
2023/09/16 09:09:40;;;;;;;11.13;7.55;;;19.50;99.90;;;;;;5064282;28;20040;-66
2023/09/16 09:12:06;;;;;;;9.25;6.93;;;19.50;99.90;;;;;;5042166;28;20040;-65
2023/09/16 09:14:34;;;;;;;9.68;6.95;;;19.60;99.90;;;;;;5047446;28;20048;-66
2023/09/16 09:17:00;;;;;;;11.82;7.53;;;19.70;99.90;;;;;;5030857;28;20131;-66
2023/09/16 09:19:27;;;;;;;12.13;6.78;;;19.70;99.90;;;;;;5030606;28;20077;-66
2023/09/16 09:21:56;;;;;;;8.65;5.72;;;19.70;99.90;;;;;;5046736;28;20740;-66
2023/09/16 09:24:22;;;;;;;9.55;6.68;;;19.70;99.90;;;;;;5054858;28;20115;-66
2023/09/16 09:26:48;;;;;;;8.98;5.57;;;19.90;99.90;;;;;;5048060;28;20072;-66
2023/09/16 09:29:14;;;;;;;11.25;6.10;;;19.90;99.90;;;;;;5038762;28;20677;-66
2023/09/16 09:31:40;;;;;;;9.98;5.78;;;20.00;99.90;;;;;;5048258;28;20047;-66
2023/09/16 09:34:17;;;;;;;8.90;5.95;;;20.00;99.90;;;;;;5030101;28;20044;-66
2023/09/16 09:36:45;;;;;;;10.65;6.35;;;20.00;99.90;;;;;;5046733;28;20066;-66
2023/09/16 09:39:10;;;;;;;10.50;6.88;;;20.10;99.90;;;;;;5050154;28;20409;-66
2023/09/16 09:41:49;;;;;;;8.90;6.82;;;20.20;99.90;;;;;;5066653;28;20052;-66
2023/09/16 09:44:15;;;;;;;9.48;6.10;;;20.20;99.90;;;;;;5066199;28;20059;-66
2023/09/16 09:46:41;;;;;;;8.60;5.47;;;20.30;99.90;;;;;;5066634;28;20041;-66
2023/09/16 09:49:10;;;;;;;11.55;5.65;;;20.30;99.90;;;;;;5048631;28;20418;-66
2023/09/16 09:51:37;;;;;;;9.15;5.80;;;20.30;99.90;;;;;;5048579;28;20151;-66
2023/09/16 09:54:04;;;;;;;11.18;6.60;;;20.40;99.90;;;;;;5065298;28;20132;-66
2023/09/16 09:56:31;;;;;;;12.05;5.45;;;20.40;99.90;;;;;;5064936;28;20041;-66
2023/09/16 09:58:57;;;;;;;9.40;5.80;;;20.50;99.90;;;;;;5048770;28;20307;-66
2023/09/16 10:01:23;;;;;;;10.80;5.30;;;20.50;99.90;;;;;;5064831;28;20066;-65
2023/09/16 10:03:49;;;;;;;9.63;6.43;;;20.50;99.90;;;;;;5048451;28;20102;-66
2023/09/16 10:06:16;;;;;;;10.73;6.93;;;20.60;99.90;;;;;;5064993;28;20283;-66
2023/09/16 10:08:42;;;;;;;11.13;6.60;;;20.60;99.90;;;;;;5064959;28;20490;-66
2023/09/16 10:11:09;;;;;;;9.85;6.13;;;20.60;99.90;;;;;;5049734;28;20193;-66
2023/09/16 10:13:35;;;;;;;11.52;6.90;;;20.60;99.90;;;;;;5066055;28;20714;-66
2023/09/16 10:16:01;;;;;;;13.15;6.78;;;20.60;99.90;;;;;;5049837;28;20048;-66
2023/09/16 10:18:30;;;;;;;12.60;7.25;;;20.70;99.90;;;;;;5067798;28;20480;-66
2023/09/16 10:20:57;;;;;;;13.85;6.93;;;20.70;99.90;;;;;;5049560;28;20086;-66
2023/09/16 10:23:23;;;;;;;10.23;6.68;;;20.70;99.90;;;;;;5064779;28;20040;-66
2023/09/16 10:25:50;;;;;;;10.48;7.72;;;20.80;99.90;;;;;;5064937;28;20413;-66
2023/09/16 10:28:17;;;;;;;12.57;6.45;;;20.90;99.90;;;;;;5063122;28;20067;-66
2023/09/16 10:30:43;;;;;;;9.80;7.00;;;20.90;99.90;;;;;;5066227;28;20087;-66
2023/09/16 10:33:10;;;;;;;10.18;6.07;;;21.00;99.90;;;;;;5066004;28;20059;-66
2023/09/16 10:35:41;;;;;;;9.98;6.15;;;21.00;99.90;;;;;;5049212;28;20054;-66
2023/09/16 10:38:09;;;;;;;10.10;6.60;;;21.00;99.90;;;;;;5048554;28;20391;-66
2023/09/16 10:40:37;;;;;;;9.85;6.75;;;21.00;99.90;;;;;;5065054;28;20352;-66
2023/09/16 10:43:04;;;;;;;8.70;5.22;;;21.10;99.90;;;;;;5048532;28;20091;-66
2023/09/16 10:45:31;;;;;;;8.43;5.25;;;21.10;99.90;;;;;;5064786;28;20093;-66
2023/09/16 10:47:59;;;;;;;9.93;5.55;;;21.10;99.90;;;;;;5048679;28;20143;-66
2023/09/16 10:50:29;;;;;;;9.80;5.57;;;21.20;99.90;;;;;;5066821;28;20512;-67
2023/09/16 10:53:02;;;;;;;10.80;6.72;;;21.30;99.90;;;;;;5058655;28;20044;-66
2023/09/16 10:55:54;;;;;;;10.13;6.03;;;21.30;99.90;;;;;;5048855;28;20067;-66
2023/09/16 10:58:38;;;;;;;10.45;5.40;;;21.40;99.90;;;;;;5066660;28;20472;-66
2023/09/16 11:01:07;;;;;;;8.50;4.50;;;21.40;99.90;;;;;;5066497;28;20712;-66
2023/09/16 11:03:37;;;;;;;7.13;4.45;;;21.40;99.90;;;;;;5047012;28;20041;-66
2023/09/16 11:06:02;;;;;;;9.27;5.13;;;21.40;99.90;;;;;;5065461;28;20169;-66
2023/09/16 11:08:29;;;;;;;9.75;4.68;;;21.50;99.90;;;;;;5048676;28;20037;-66
2023/09/16 11:10:58;;;;;;;8.18;4.05;;;21.50;99.90;;;;;;5048823;28;20060;-67
2023/09/16 11:13:26;;;;;;;9.68;5.28;;;21.50;99.90;;;;;;5064666;28;20655;-67
2023/09/16 11:15:52;;;;;;;10.40;5.85;;;21.60;99.90;;;;;;5066209;28;20896;-67
2023/09/16 11:18:19;;;;;;;7.90;4.65;;;21.60;99.90;;;;;;5065551;28;20131;-67
2023/09/16 11:20:46;;;;;;;8.77;4.88;;;21.60;99.90;;;;;;5065398;28;20052;-67
2023/09/16 11:23:12;;;;;;;10.85;4.93;;;21.70;99.90;;;;;;5048489;28;20498;-67
2023/09/16 11:25:40;;;;;;;8.82;4.82;;;21.70;99.90;;;;;;5065499;28;20050;-67
2023/09/16 11:28:15;;;;;;;6.68;3.20;;;21.80;99.90;;;;;;5065196;28;20386;-67
2023/09/16 11:30:56;;;;;;;6.57;2.60;;;21.80;99.90;;;;;;5065834;28;20056;-67
2023/09/16 11:33:38;;;;;;;8.90;2.97;;;21.80;99.90;;;;;;5029002;28;20056;-67
2023/09/16 11:36:15;;;;;;;8.43;3.97;;;21.90;99.90;;;;;;5045408;28;20144;-67
2023/09/16 11:38:54;;;;;;;6.95;3.75;;;21.90;99.90;;;;;;5062378;28;20053;-67
2023/09/16 11:41:20;;;;;;;6.25;3.13;;;22.00;99.90;;;;;;5098968;28;20052;-67
2023/09/16 11:43:46;;;;;;;7.63;3.85;;;22.00;99.90;;;;;;5065378;28;20063;-67
2023/09/16 11:46:13;;;;;;;7.43;3.10;;;22.10;99.90;;;;;;5047923;28;20049;-67
2023/09/16 11:48:55;;;;;;;7.45;3.55;;;22.10;99.90;;;;;;5067463;28;20045;-67
2023/09/16 11:51:22;;;;;;;7.53;3.28;;;22.20;99.90;;;;;;5052481;28;20114;-68
2023/09/16 11:53:49;;;;;;;7.90;2.97;;;22.20;99.90;;;;;;5068995;28;20052;-67
2023/09/16 11:56:16;;;;;;;5.53;2.75;;;22.30;99.90;;;;;;5070300;28;20450;-68
2023/09/16 11:58:43;;;;;;;7.82;2.90;;;22.30;99.90;;;;;;5068800;28;20052;-68
2023/09/16 12:01:12;;;;;;;7.15;2.90;;;22.30;99.90;;;;;;5068911;28;20052;-68
2023/09/16 12:03:39;;;;;;;6.03;2.67;;;22.40;99.90;;;;;;5068995;28;20052;-68
2023/09/16 12:06:05;;;;;;;7.28;2.95;;;22.40;99.90;;;;;;5068435;28;20048;-68
2023/09/16 12:08:31;;;;;;;6.78;2.70;;;22.50;99.90;;;;;;5069612;28;20051;-68
2023/09/16 12:10:57;;;;;;;4.88;2.58;;;22.50;99.90;;;;;;5052218;28;20087;-68
2023/09/16 12:13:30;;;;;;;6.22;2.78;;;22.50;99.90;;;;;;5069556;28;20060;-68
2023/09/16 12:15:57;;;;;;;5.78;2.50;;;22.50;99.90;;;;;;5051750;28;20683;-68
2023/09/16 12:18:23;;;;;;;5.47;2.78;;;22.50;99.90;;;;;;5068313;28;20701;-68
2023/09/16 12:20:49;;;;;;;6.47;2.70;;;22.60;99.90;;;;;;5069304;28;20165;-68
2023/09/16 12:23:15;;;;;;;4.93;2.40;;;22.60;99.90;;;;;;5068272;28;20041;-67
2023/09/16 12:25:41;;;;;;;6.10;2.28;;;22.60;99.90;;;;;;5051597;28;20141;-68
2023/09/16 12:28:10;;;;;;;6.10;2.58;;;22.60;99.90;;;;;;5051418;28;20052;-68
2023/09/16 12:30:43;;;;;;;7.30;2.90;;;22.70;99.90;;;;;;5051859;28;20086;-68
2023/09/16 12:33:10;;;;;;;7.07;3.13;;;22.80;99.90;;;;;;5068631;28;20045;-68
2023/09/16 12:35:40;;;;;;;6.03;2.65;;;22.80;99.90;;;;;;5051681;28;20053;-68